sensor_id;sensor_type;location;lat;lon;timestamp;pressure;altitude;pressure_sealevel;temperature;humidity
21182;BME280;10749;46.296;7.524;2022-09-09T00:01:37;94753.00;;;20.83;44.32
21182;BME280;10749;46.296;7.524;2022-09-09T00:07:10;94744.28;;;20.76;44.62
21182;BME280;10749;46.296;7.524;2022-09-09T00:09:45;94752.34;;;20.76;44.36
21182;BME280;10749;46.296;7.524;2022-09-09T00:12:15;94744.19;;;20.71;44.49
21182;BME280;10749;46.296;7.524;2022-09-09T00:14:47;94741.19;;;20.67;44.33
21182;BME280;10749;46.296;7.524;2022-09-09T00:20:21;94741.84;;;20.58;44.77
21182;BME280;10749;46.296;7.524;2022-09-09T00:25:40;94740.22;;;20.57;44.95
21182;BME280;10749;46.296;7.524;2022-09-09T00:28:20;94743.63;;;20.52;45.60
21182;BME280;10749;46.296;7.524;2022-09-09T00:30:47;94745.31;;;20.42;45.70
21182;BME280;10749;46.296;7.524;2022-09-09T00:33:15;94738.66;;;20.44;45.57
21182;BME280;10749;46.296;7.524;2022-09-09T00:35:57;94737.03;;;20.43;45.62
21182;BME280;10749;46.296;7.524;2022-09-09T00:38:35;94737.50;;;20.40;45.51
21182;BME280;10749;46.296;7.524;2022-09-09T00:41:29;94737.19;;;20.37;45.76
21182;BME280;10749;46.296;7.524;2022-09-09T00:44:13;94733.72;;;20.24;46.16
21182;BME280;10749;46.296;7.524;2022-09-09T00:46:56;94742.00;;;20.23;45.72
21182;BME280;10749;46.296;7.524;2022-09-09T00:49:44;94743.31;;;20.20;46.13
21182;BME280;10749;46.296;7.524;2022-09-09T00:52:26;94739.94;;;20.13;46.20
21182;BME280;10749;46.296;7.524;2022-09-09T00:57:34;94744.25;;;20.14;45.91
21182;BME280;10749;46.296;7.524;2022-09-09T01:00:20;94741.91;;;20.18;46.17
21182;BME280;10749;46.296;7.524;2022-09-09T01:07:58;94734.84;;;20.00;46.45
21182;BME280;10749;46.296;7.524;2022-09-09T01:10:50;94740.34;;;20.05;46.18
21182;BME280;10749;46.296;7.524;2022-09-09T01:13:27;94733.91;;;20.06;46.34
21182;BME280;10749;46.296;7.524;2022-09-09T01:16:02;94734.97;;;20.05;46.69
21182;BME280;10749;46.296;7.524;2022-09-09T01:18:44;94734.97;;;20.05;46.37
21182;BME280;10749;46.296;7.524;2022-09-09T01:21:20;94729.47;;;20.00;46.85
21182;BME280;10749;46.296;7.524;2022-09-09T01:24:00;94724.50;;;19.92;47.13
21182;BME280;10749;46.296;7.524;2022-09-09T01:26:43;94724.16;;;19.89;46.97
21182;BME280;10749;46.296;7.524;2022-09-09T01:29:14;94727.13;;;19.87;46.79
21182;BME280;10749;46.296;7.524;2022-09-09T01:31:42;94725.69;;;19.85;46.76
21182;BME280;10749;46.296;7.524;2022-09-09T01:34:16;94733.44;;;19.81;47.17
21182;BME280;10749;46.296;7.524;2022-09-09T01:39:16;94732.94;;;19.84;47.03
21182;BME280;10749;46.296;7.524;2022-09-09T01:41:41;94733.09;;;19.77;47.05
21182;BME280;10749;46.296;7.524;2022-09-09T01:44:07;94724.22;;;19.77;47.34
21182;BME280;10749;46.296;7.524;2022-09-09T01:46:33;94720.22;;;19.79;47.17
21182;BME280;10749;46.296;7.524;2022-09-09T01:49:00;94722.19;;;19.84;47.14
21182;BME280;10749;46.296;7.524;2022-09-09T01:51:27;94711.38;;;19.79;47.02
21182;BME280;10749;46.296;7.524;2022-09-09T01:53:53;94708.16;;;19.65;47.41
21182;BME280;10749;46.296;7.524;2022-09-09T02:05:44;94695.41;;;19.72;47.29
21182;BME280;10749;46.296;7.524;2022-09-09T02:08:38;94703.00;;;19.64;47.22
21182;BME280;10749;46.296;7.524;2022-09-09T02:11:16;94700.09;;;19.65;46.92
21182;BME280;10749;46.296;7.524;2022-09-09T02:13:47;94699.38;;;19.70;47.28
21182;BME280;10749;46.296;7.524;2022-09-09T02:18:55;94705.38;;;19.60;47.40
21182;BME280;10749;46.296;7.524;2022-09-09T02:21:23;94703.59;;;19.66;47.35
21182;BME280;10749;46.296;7.524;2022-09-09T02:23:50;94717.13;;;19.71;47.43
21182;BME280;10749;46.296;7.524;2022-09-09T02:26:18;94718.41;;;19.68;47.29
21182;BME280;10749;46.296;7.524;2022-09-09T02:28:46;94723.59;;;19.47;47.06
21182;BME280;10749;46.296;7.524;2022-09-09T02:31:15;94720.78;;;19.30;47.28
21182;BME280;10749;46.296;7.524;2022-09-09T02:33:47;94720.94;;;19.23;47.60
21182;BME280;10749;46.296;7.524;2022-09-09T02:36:15;94716.28;;;19.07;47.69
21182;BME280;10749;46.296;7.524;2022-09-09T02:38:46;94720.38;;;19.10;48.50
21182;BME280;10749;46.296;7.524;2022-09-09T02:41:20;94724.22;;;19.25;47.99
21182;BME280;10749;46.296;7.524;2022-09-09T02:43:49;94720.69;;;19.36;48.26
21182;BME280;10749;46.296;7.524;2022-09-09T02:46:34;94718.13;;;19.42;48.30
21182;BME280;10749;46.296;7.524;2022-09-09T02:49:03;94718.13;;;19.42;48.34
21182;BME280;10749;46.296;7.524;2022-09-09T02:51:39;94720.34;;;19.45;47.97
21182;BME280;10749;46.296;7.524;2022-09-09T02:54:27;94725.34;;;19.53;47.88
21182;BME280;10749;46.296;7.524;2022-09-09T02:56:57;94718.94;;;19.54;48.07
21182;BME280;10749;46.296;7.524;2022-09-09T02:59:27;94724.63;;;19.57;47.98
21182;BME280;10749;46.296;7.524;2022-09-09T03:01:52;94728.13;;;19.58;48.23
21182;BME280;10749;46.296;7.524;2022-09-09T03:04:18;94726.84;;;19.60;48.00
21182;BME280;10749;46.296;7.524;2022-09-09T03:06:43;94724.75;;;19.62;47.91
21182;BME280;10749;46.296;7.524;2022-09-09T03:09:09;94730.44;;;19.66;47.75
21182;BME280;10749;46.296;7.524;2022-09-09T03:11:36;94735.00;;;19.65;48.32
21182;BME280;10749;46.296;7.524;2022-09-09T03:14:01;94729.41;;;19.67;48.18
21182;BME280;10749;46.296;7.524;2022-09-09T03:16:27;94722.41;;;19.66;48.06
21182;BME280;10749;46.296;7.524;2022-09-09T03:18:52;94736.31;;;19.63;48.14
21182;BME280;10749;46.296;7.524;2022-09-09T03:21:17;94740.03;;;19.62;47.83
21182;BME280;10749;46.296;7.524;2022-09-09T03:23:43;94727.66;;;19.61;47.88
21182;BME280;10749;46.296;7.524;2022-09-09T03:26:10;94737.00;;;19.58;48.00
21182;BME280;10749;46.296;7.524;2022-09-09T03:28:35;94742.59;;;19.57;47.77
21182;BME280;10749;46.296;7.524;2022-09-09T03:31:02;94745.78;;;19.54;47.90
21182;BME280;10749;46.296;7.524;2022-09-09T03:33:28;94744.03;;;19.48;48.17
21182;BME280;10749;46.296;7.524;2022-09-09T03:35:55;94744.50;;;19.45;48.36
21182;BME280;10749;46.296;7.524;2022-09-09T03:38:25;94747.19;;;19.45;48.82
21182;BME280;10749;46.296;7.524;2022-09-09T03:40:52;94754.03;;;19.41;49.31
21182;BME280;10749;46.296;7.524;2022-09-09T03:43:21;94757.78;;;19.40;49.58
21182;BME280;10749;46.296;7.524;2022-09-09T03:45:47;94752.22;;;19.29;49.97
21182;BME280;10749;46.296;7.524;2022-09-09T03:48:13;94750.44;;;19.35;49.91
21182;BME280;10749;46.296;7.524;2022-09-09T03:50:46;94751.59;;;19.39;49.33
21182;BME280;10749;46.296;7.524;2022-09-09T03:53:12;94758.38;;;19.42;49.45
21182;BME280;10749;46.296;7.524;2022-09-09T03:55:38;94752.78;;;19.43;49.19
21182;BME280;10749;46.296;7.524;2022-09-09T03:58:03;94751.50;;;19.46;49.16
21182;BME280;10749;46.296;7.524;2022-09-09T04:00:29;94759.56;;;19.46;49.28
21182;BME280;10749;46.296;7.524;2022-09-09T04:02:55;94754.28;;;19.39;49.78
21182;BME280;10749;46.296;7.524;2022-09-09T04:05:22;94762.69;;;19.43;49.53
21182;BME280;10749;46.296;7.524;2022-09-09T04:07:48;94758.81;;;19.38;49.92
21182;BME280;10749;46.296;7.524;2022-09-09T04:10:13;94748.91;;;19.39;49.96
21182;BME280;10749;46.296;7.524;2022-09-09T04:12:38;94753.81;;;19.42;49.66
21182;BME280;10749;46.296;7.524;2022-09-09T04:15:04;94756.41;;;19.25;49.69
21182;BME280;10749;46.296;7.524;2022-09-09T04:17:29;94748.59;;;19.24;49.09
21182;BME280;10749;46.296;7.524;2022-09-09T04:19:55;94762.56;;;19.26;49.55
21182;BME280;10749;46.296;7.524;2022-09-09T04:22:20;94754.63;;;19.31;49.79
21182;BME280;10749;46.296;7.524;2022-09-09T04:24:46;94745.19;;;19.40;49.57
21182;BME280;10749;46.296;7.524;2022-09-09T04:27:11;94750.91;;;19.44;49.50
21182;BME280;10749;46.296;7.524;2022-09-09T04:29:37;94744.72;;;19.43;49.67
21182;BME280;10749;46.296;7.524;2022-09-09T04:32:03;94742.16;;;19.36;49.94
21182;BME280;10749;46.296;7.524;2022-09-09T04:34:29;94731.75;;;19.40;50.14
21182;BME280;10749;46.296;7.524;2022-09-09T04:36:56;94731.91;;;19.33;50.04
21182;BME280;10749;46.296;7.524;2022-09-09T04:39:22;94734.59;;;19.33;50.27
21182;BME280;10749;46.296;7.524;2022-09-09T04:41:47;94738.88;;;19.34;50.00
21182;BME280;10749;46.296;7.524;2022-09-09T04:44:12;94737.28;;;19.33;50.20
21182;BME280;10749;46.296;7.524;2022-09-09T04:46:38;94742.53;;;19.28;49.81
21182;BME280;10749;46.296;7.524;2022-09-09T04:49:03;94744.97;;;19.18;49.73
21182;BME280;10749;46.296;7.524;2022-09-09T04:51:28;94738.09;;;19.11;50.06
21182;BME280;10749;46.296;7.524;2022-09-09T04:53:56;94744.16;;;19.06;50.39
21182;BME280;10749;46.296;7.524;2022-09-09T04:56:21;94744.03;;;19.01;50.68
21182;BME280;10749;46.296;7.524;2022-09-09T04:58:46;94744.50;;;18.98;50.53
21182;BME280;10749;46.296;7.524;2022-09-09T05:01:15;94742.53;;;18.94;50.84
21182;BME280;10749;46.296;7.524;2022-09-09T05:03:40;94735.66;;;18.86;50.65
21182;BME280;10749;46.296;7.524;2022-09-09T05:06:11;94732.75;;;18.87;50.70
21182;BME280;10749;46.296;7.524;2022-09-09T05:08:38;94748.50;;;18.84;50.92
21182;BME280;10749;46.296;7.524;2022-09-09T05:11:14;94737.66;;;18.79;51.23
21182;BME280;10749;46.296;7.524;2022-09-09T05:13:40;94743.81;;;18.79;51.50
21182;BME280;10749;46.296;7.524;2022-09-09T05:16:06;94742.75;;;18.80;51.19
21182;BME280;10749;46.296;7.524;2022-09-09T05:18:31;94742.66;;;18.75;51.34
21182;BME280;10749;46.296;7.524;2022-09-09T05:20:59;94746.84;;;18.83;51.02
21182;BME280;10749;46.296;7.524;2022-09-09T05:23:25;94748.50;;;18.84;51.02
21182;BME280;10749;46.296;7.524;2022-09-09T05:25:57;94747.06;;;18.70;51.14
21182;BME280;10749;46.296;7.524;2022-09-09T05:28:24;94744.91;;;18.49;51.60
21182;BME280;10749;46.296;7.524;2022-09-09T05:31:02;94740.56;;;18.36;51.44
21182;BME280;10749;46.296;7.524;2022-09-09T05:33:33;94737.69;;;18.49;51.62
21182;BME280;10749;46.296;7.524;2022-09-09T05:36:04;94738.19;;;18.58;51.49
21182;BME280;10749;46.296;7.524;2022-09-09T05:38:30;94739.59;;;18.60;51.40
21182;BME280;10749;46.296;7.524;2022-09-09T05:40:56;94743.69;;;18.63;51.31
21182;BME280;10749;46.296;7.524;2022-09-09T05:43:22;94740.53;;;18.66;51.67
21182;BME280;10749;46.296;7.524;2022-09-09T05:45:57;94741.50;;;18.71;51.86
21182;BME280;10749;46.296;7.524;2022-09-09T05:48:23;94751.50;;;18.76;51.91
21182;BME280;10749;46.296;7.524;2022-09-09T05:50:52;94748.25;;;18.74;51.66
21182;BME280;10749;46.296;7.524;2022-09-09T05:53:19;94747.41;;;18.73;52.12
21182;BME280;10749;46.296;7.524;2022-09-09T05:55:45;94761.16;;;18.77;52.15
21182;BME280;10749;46.296;7.524;2022-09-09T05:58:10;94762.81;;;18.78;51.62
21182;BME280;10749;46.296;7.524;2022-09-09T06:00:36;94756.06;;;18.75;51.26
21182;BME280;10749;46.296;7.524;2022-09-09T06:03:02;94761.78;;;18.79;51.61
21182;BME280;10749;46.296;7.524;2022-09-09T06:05:28;94764.53;;;18.72;51.64
21182;BME280;10749;46.296;7.524;2022-09-09T06:07:55;94772.84;;;18.82;51.58
21182;BME280;10749;46.296;7.524;2022-09-09T06:10:21;94767.97;;;18.91;51.71
21182;BME280;10749;46.296;7.524;2022-09-09T06:12:47;94771.81;;;18.95;51.58
21182;BME280;10749;46.296;7.524;2022-09-09T06:15:12;94772.75;;;19.01;51.86
21182;BME280;10749;46.296;7.524;2022-09-09T06:17:37;94772.97;;;18.99;51.83
21182;BME280;10749;46.296;7.524;2022-09-09T06:20:04;94778.13;;;19.01;51.99
21182;BME280;10749;46.296;7.524;2022-09-09T06:22:29;94780.19;;;18.99;51.73
21182;BME280;10749;46.296;7.524;2022-09-09T06:24:55;94785.22;;;18.95;51.62
21182;BME280;10749;46.296;7.524;2022-09-09T06:27:20;94793.47;;;19.05;51.38
21182;BME280;10749;46.296;7.524;2022-09-09T06:29:46;94786.03;;;19.07;51.64
21182;BME280;10749;46.296;7.524;2022-09-09T06:32:11;94797.94;;;19.11;51.50
21182;BME280;10749;46.296;7.524;2022-09-09T06:34:36;94790.81;;;19.17;51.27
21182;BME280;10749;46.296;7.524;2022-09-09T06:37:02;94785.81;;;19.20;51.27
21182;BME280;10749;46.296;7.524;2022-09-09T06:39:27;94790.22;;;19.26;51.78
21182;BME280;10749;46.296;7.524;2022-09-09T06:41:53;94784.28;;;19.36;51.45
21182;BME280;10749;46.296;7.524;2022-09-09T06:44:19;94779.97;;;19.47;51.43
21182;BME280;10749;46.296;7.524;2022-09-09T06:46:44;94782.53;;;19.42;51.23
21182;BME280;10749;46.296;7.524;2022-09-09T06:49:13;94780.31;;;19.62;51.07
21182;BME280;10749;46.296;7.524;2022-09-09T06:51:38;94780.47;;;19.83;51.16
21182;BME280;10749;46.296;7.524;2022-09-09T06:54:08;94775.63;;;19.97;50.67
21182;BME280;10749;46.296;7.524;2022-09-09T06:56:36;94770.47;;;20.07;50.86
21182;BME280;10749;46.296;7.524;2022-09-09T06:59:04;94779.28;;;20.19;50.13
21182;BME280;10749;46.296;7.524;2022-09-09T07:01:35;94783.59;;;20.32;50.26
21182;BME280;10749;46.296;7.524;2022-09-09T07:04:02;94779.03;;;20.33;50.44
21182;BME280;10749;46.296;7.524;2022-09-09T07:06:31;94780.19;;;20.37;50.38
21182;BME280;10749;46.296;7.524;2022-09-09T07:08:59;94780.66;;;20.34;50.31
21182;BME280;10749;46.296;7.524;2022-09-09T07:11:27;94779.22;;;20.43;50.15
21182;BME280;10749;46.296;7.524;2022-09-09T07:13:53;94784.91;;;20.46;49.82
21182;BME280;10749;46.296;7.524;2022-09-09T07:16:20;94782.88;;;20.37;49.60
21182;BME280;10749;46.296;7.524;2022-09-09T07:18:46;94784.91;;;20.46;49.83
21182;BME280;10749;46.296;7.524;2022-09-09T07:21:13;94776.44;;;20.54;49.72
21182;BME280;10749;46.296;7.524;2022-09-09T07:23:40;94774.75;;;20.65;49.76
21182;BME280;10749;46.296;7.524;2022-09-09T07:26:13;94773.88;;;20.76;49.45
21182;BME280;10749;46.296;7.524;2022-09-09T07:28:40;94781.03;;;20.87;49.15
21182;BME280;10749;46.296;7.524;2022-09-09T07:31:07;94773.31;;;20.91;48.83
21182;BME280;10749;46.296;7.524;2022-09-09T07:33:34;94773.72;;;20.99;48.88
21182;BME280;10749;46.296;7.524;2022-09-09T07:36:08;94778.09;;;21.05;48.99
21182;BME280;10749;46.296;7.524;2022-09-09T07:38:38;94781.28;;;21.02;48.85
21182;BME280;10749;46.296;7.524;2022-09-09T07:41:09;94781.47;;;21.12;48.64
21182;BME280;10749;46.296;7.524;2022-09-09T07:43:38;94772.50;;;21.24;48.66
21182;BME280;10749;46.296;7.524;2022-09-09T07:46:04;94777.94;;;21.29;48.76
21182;BME280;10749;46.296;7.524;2022-09-09T07:48:31;94762.38;;;21.31;48.55
21182;BME280;10749;46.296;7.524;2022-09-09T07:51:15;94761.41;;;21.37;48.49
21182;BME280;10749;46.296;7.524;2022-09-09T07:53:45;94764.09;;;21.37;48.25
21182;BME280;10749;46.296;7.524;2022-09-09T07:56:14;94761.44;;;21.42;48.27
21182;BME280;10749;46.296;7.524;2022-09-09T07:58:42;94767.31;;;21.39;48.33
21182;BME280;10749;46.296;7.524;2022-09-09T08:01:18;94765.84;;;21.48;48.15
21182;BME280;10749;46.296;7.524;2022-09-09T08:03:51;94760.38;;;21.43;48.19
21182;BME280;10749;46.296;7.524;2022-09-09T08:06:17;94764.53;;;21.50;48.15
21182;BME280;10749;46.296;7.524;2022-09-09T08:08:43;94764.59;;;21.55;48.28
21182;BME280;10749;46.296;7.524;2022-09-09T08:11:12;94769.22;;;21.60;47.80
21182;BME280;10749;46.296;7.524;2022-09-09T08:13:40;94764.47;;;21.67;47.92
21182;BME280;10749;46.296;7.524;2022-09-09T08:18:35;94762.34;;;21.69;47.61
21182;BME280;10749;46.296;7.524;2022-09-09T08:21:12;94764.16;;;21.63;47.26
21182;BME280;10749;46.296;7.524;2022-09-09T08:23:42;94763.19;;;21.70;47.49
21182;BME280;10749;46.296;7.524;2022-09-09T08:26:16;94761.66;;;21.79;47.32
21182;BME280;10749;46.296;7.524;2022-09-09T08:28:42;94761.91;;;21.77;47.30
21182;BME280;10749;46.296;7.524;2022-09-09T08:31:13;94761.41;;;21.80;46.95
21182;BME280;10749;46.296;7.524;2022-09-09T08:33:41;94762.00;;;21.82;46.88
21182;BME280;10749;46.296;7.524;2022-09-09T08:36:09;94760.34;;;21.81;46.75
21182;BME280;10749;46.296;7.524;2022-09-09T08:38:35;94762.59;;;21.68;46.81
21182;BME280;10749;46.296;7.524;2022-09-09T08:45:11;94762.41;;;21.74;46.89
21182;BME280;10749;46.296;7.524;2022-09-09T08:47:24;94757.72;;;21.86;46.99
21182;BME280;10749;46.296;7.524;2022-09-09T08:50:02;94749.84;;;22.01;46.59
21182;BME280;10749;46.296;7.524;2022-09-09T08:52:38;94754.97;;;21.81;46.61
21182;BME280;10749;46.296;7.524;2022-09-09T08:55:28;94745.44;;;21.95;46.59
21182;BME280;10749;46.296;7.524;2022-09-09T08:57:58;94749.69;;;22.13;46.48
21182;BME280;10749;46.296;7.524;2022-09-09T09:09:08;94729.72;;;22.36;46.21
21182;BME280;10749;46.296;7.524;2022-09-09T09:11:50;94729.16;;;22.34;46.21
21182;BME280;10749;46.296;7.524;2022-09-09T09:14:24;94727.56;;;22.38;46.28
21182;BME280;10749;46.296;7.524;2022-09-09T09:17:16;94729.56;;;22.47;45.81
21182;BME280;10749;46.296;7.524;2022-09-09T09:19:43;94729.41;;;22.05;44.91
21182;BME280;10749;46.296;7.524;2022-09-09T09:25:04;94729.09;;;22.29;46.03
21182;BME280;10749;46.296;7.524;2022-09-09T09:30:19;94723.09;;;22.48;45.13
21182;BME280;10749;46.296;7.524;2022-09-09T09:33:01;94717.03;;;22.36;45.03
21182;BME280;10749;46.296;7.524;2022-09-09T09:35:28;94718.56;;;22.54;45.17
21182;BME280;10749;46.296;7.524;2022-09-09T09:37:54;94708.81;;;22.53;44.35
21182;BME280;10749;46.296;7.524;2022-09-09T09:40:21;94710.56;;;22.64;44.87
21182;BME280;10749;46.296;7.524;2022-09-09T09:42:58;94712.38;;;22.85;45.13
21182;BME280;10749;46.296;7.524;2022-09-09T09:45:34;94699.91;;;22.79;44.99
21182;BME280;10749;46.296;7.524;2022-09-09T09:48:05;94701.34;;;22.92;44.83
21182;BME280;10749;46.296;7.524;2022-09-09T09:50:32;94708.22;;;23.10;45.07
21182;BME280;10749;46.296;7.524;2022-09-09T09:53:01;94703.91;;;23.09;44.65
21182;BME280;10749;46.296;7.524;2022-09-09T09:55:28;94701.34;;;22.92;42.69
21182;BME280;10749;46.296;7.524;2022-09-09T09:58:01;94697.88;;;22.96;43.55
21182;BME280;10749;46.296;7.524;2022-09-09T10:00:27;94698.41;;;22.93;43.68
21182;BME280;10749;46.296;7.524;2022-09-09T10:02:52;94696.31;;;23.06;43.69
21182;BME280;10749;46.296;7.524;2022-09-09T10:05:21;94693.19;;;23.24;44.04
21182;BME280;10749;46.296;7.524;2022-09-09T10:07:47;94684.16;;;23.45;43.83
21182;BME280;10749;46.296;7.524;2022-09-09T10:10:33;94677.13;;;23.49;43.54
21182;BME280;10749;46.296;7.524;2022-09-09T10:16:03;94677.97;;;23.50;42.54
21182;BME280;10749;46.296;7.524;2022-09-09T10:18:41;94679.09;;;23.59;42.56
21182;BME280;10749;46.296;7.524;2022-09-09T10:26:54;94663.53;;;23.96;42.15
21182;BME280;10749;46.296;7.524;2022-09-09T10:32:29;94648.56;;;23.63;41.48
21182;BME280;10749;46.296;7.524;2022-09-09T10:37:41;94640.09;;;24.17;41.07
21182;BME280;10749;46.296;7.524;2022-09-09T10:40:30;94634.41;;;24.33;41.18
21182;BME280;10749;46.296;7.524;2022-09-09T10:43:28;94633.06;;;24.46;40.41
21182;BME280;10749;46.296;7.524;2022-09-09T10:48:30;94632.53;;;24.44;39.37
21182;BME280;10749;46.296;7.524;2022-09-09T10:53:35;94634.41;;;24.89;40.18
21182;BME280;10749;46.296;7.524;2022-09-09T10:56:11;94623.81;;;25.03;40.35
21182;BME280;10749;46.296;7.524;2022-09-09T10:58:48;94620.53;;;25.16;39.98
21182;BME280;10749;46.296;7.524;2022-09-09T11:01:22;94617.84;;;25.21;40.29
21182;BME280;10749;46.296;7.524;2022-09-09T11:03:54;94609.72;;;25.21;39.58
21182;BME280;10749;46.296;7.524;2022-09-09T11:06:25;94617.81;;;25.26;39.63
21182;BME280;10749;46.296;7.524;2022-09-09T11:08:54;94611.28;;;25.27;39.33
21182;BME280;10749;46.296;7.524;2022-09-09T11:11:30;94605.34;;;25.30;39.41
21182;BME280;10749;46.296;7.524;2022-09-09T11:14:15;94596.09;;;25.36;38.54
21182;BME280;10749;46.296;7.524;2022-09-09T11:16:57;94598.25;;;25.39;38.62
21182;BME280;10749;46.296;7.524;2022-09-09T11:19:38;94586.56;;;25.54;38.44
21182;BME280;10749;46.296;7.524;2022-09-09T11:24:46;94574.84;;;25.63;37.32
21182;BME280;10749;46.296;7.524;2022-09-09T11:38:50;94552.38;;;26.02;34.64
21182;BME280;10749;46.296;7.524;2022-09-09T11:41:19;94554.47;;;26.15;35.11
21182;BME280;10749;46.296;7.524;2022-09-09T11:43:51;94557.41;;;26.24;34.97
21182;BME280;10749;46.296;7.524;2022-09-09T11:46:19;94560.31;;;26.32;33.17
21182;BME280;10749;46.296;7.524;2022-09-09T11:48:58;94557.56;;;26.37;34.60
21182;BME280;10749;46.296;7.524;2022-09-09T11:51:27;94557.97;;;26.54;34.96
21182;BME280;10749;46.296;7.524;2022-09-09T11:53:57;94565.41;;;26.68;33.88
21182;BME280;10749;46.296;7.524;2022-09-09T11:56:43;94559.44;;;26.71;33.05
21182;BME280;10749;46.296;7.524;2022-09-09T11:59:29;94562.38;;;26.74;32.34
21182;BME280;10749;46.296;7.524;2022-09-09T12:01:57;94552.66;;;26.97;33.15
21182;BME280;10749;46.296;7.524;2022-09-09T12:04:30;94567.28;;;27.01;31.28
21182;BME280;10749;46.296;7.524;2022-09-09T12:14:43;94549.53;;;27.08;29.38
21182;BME280;10749;46.296;7.524;2022-09-09T12:17:30;94551.06;;;27.20;29.81
21182;BME280;10749;46.296;7.524;2022-09-09T12:25:47;94564.59;;;27.67;29.15
21182;BME280;10749;46.296;7.524;2022-09-09T12:28:18;94553.94;;;27.71;29.03
21182;BME280;10749;46.296;7.524;2022-09-09T12:30:57;94546.53;;;27.76;28.59
21182;BME280;10749;46.296;7.524;2022-09-09T12:33:24;94542.91;;;27.99;28.85
21182;BME280;10749;46.296;7.524;2022-09-09T12:35:58;94542.50;;;28.11;28.53
21182;BME280;10749;46.296;7.524;2022-09-09T12:38:34;94538.09;;;28.15;27.74
21182;BME280;10749;46.296;7.524;2022-09-09T12:41:01;94545.41;;;27.96;27.43
21182;BME280;10749;46.296;7.524;2022-09-09T12:43:27;94531.78;;;27.82;26.44
21182;BME280;10749;46.296;7.524;2022-09-09T12:46:03;94530.00;;;28.10;27.42
21182;BME280;10749;46.296;7.524;2022-09-09T12:48:41;94536.19;;;28.16;27.48
21182;BME280;10749;46.296;7.524;2022-09-09T12:51:27;94536.34;;;28.38;27.58
21182;BME280;10749;46.296;7.524;2022-09-09T12:53:54;94535.78;;;28.55;27.46
21182;BME280;10749;46.296;7.524;2022-09-09T12:56:22;94518.84;;;28.58;27.36
21182;BME280;10749;46.296;7.524;2022-09-09T12:58:50;94527.91;;;28.72;27.80
21182;BME280;10749;46.296;7.524;2022-09-09T13:01:33;94523.97;;;28.78;27.58
21182;BME280;10749;46.296;7.524;2022-09-09T13:03:59;94511.88;;;28.84;26.68
21182;BME280;10749;46.296;7.524;2022-09-09T13:06:26;94514.84;;;28.69;26.22
21182;BME280;10749;46.296;7.524;2022-09-09T13:08:53;94501.75;;;28.71;24.69
21182;BME280;10749;46.296;7.524;2022-09-09T13:11:26;94513.50;;;28.85;26.79
21182;BME280;10749;46.296;7.524;2022-09-09T13:13:56;94512.56;;;29.03;26.18
21182;BME280;10749;46.296;7.524;2022-09-09T13:16:26;94519.34;;;28.92;25.95
21182;BME280;10749;46.296;7.524;2022-09-09T13:18:55;94518.41;;;28.83;25.32
21182;BME280;10749;46.296;7.524;2022-09-09T13:21:31;94504.22;;;28.86;23.71
21182;BME280;10749;46.296;7.524;2022-09-09T13:23:57;94519.75;;;28.99;25.43
21182;BME280;10749;46.296;7.524;2022-09-09T13:26:26;94496.94;;;28.95;22.47
21182;BME280;10749;46.296;7.524;2022-09-09T13:28:53;94526.63;;;29.10;25.44
21182;BME280;10749;46.296;7.524;2022-09-09T13:31:28;94515.50;;;29.20;25.10
21182;BME280;10749;46.296;7.524;2022-09-09T13:33:54;94504.00;;;29.23;23.82
21182;BME280;10749;46.296;7.524;2022-09-09T13:36:31;94511.47;;;29.04;24.07
21182;BME280;10749;46.296;7.524;2022-09-09T13:38:59;94521.97;;;29.24;24.16
21182;BME280;10749;46.296;7.524;2022-09-09T13:41:30;94517.53;;;29.01;23.73
21182;BME280;10749;46.296;7.524;2022-09-09T13:43:56;94524.63;;;29.29;24.65
21182;BME280;10749;46.296;7.524;2022-09-09T13:46:38;94525.00;;;29.23;23.66
21182;BME280;10749;46.296;7.524;2022-09-09T13:51:47;94520.03;;;29.11;22.93
21182;BME280;10749;46.296;7.524;2022-09-09T13:54:15;94495.13;;;29.04;23.44
21182;BME280;10749;46.296;7.524;2022-09-09T13:56:42;94515.94;;;29.27;23.55
21182;BME280;10749;46.296;7.524;2022-09-09T13:59:12;94517.25;;;29.44;24.23
21182;BME280;10749;46.296;7.524;2022-09-09T14:01:38;94517.91;;;29.63;24.05
21182;BME280;10749;46.296;7.524;2022-09-09T14:04:04;94528.97;;;29.30;23.38
21182;BME280;10749;46.296;7.524;2022-09-09T14:06:34;94516.13;;;29.17;22.84
21182;BME280;10749;46.296;7.524;2022-09-09T14:09:02;94519.16;;;29.02;22.47
21182;BME280;10749;46.296;7.524;2022-09-09T14:11:27;94515.53;;;29.07;23.34
21182;BME280;10749;46.296;7.524;2022-09-09T14:13:53;94524.81;;;29.47;23.90
21182;BME280;10749;46.296;7.524;2022-09-09T14:16:18;94536.09;;;29.54;22.86
21182;BME280;10749;46.296;7.524;2022-09-09T14:18:45;94533.28;;;29.45;23.12
21182;BME280;10749;46.296;7.524;2022-09-09T14:21:11;94523.00;;;29.28;22.06
21182;BME280;10749;46.296;7.524;2022-09-09T14:23:37;94526.81;;;29.27;21.97
21182;BME280;10749;46.296;7.524;2022-09-09T14:26:03;94519.75;;;29.26;23.05
21182;BME280;10749;46.296;7.524;2022-09-09T14:28:29;94514.19;;;29.45;22.16
21182;BME280;10749;46.296;7.524;2022-09-09T14:30:54;94535.72;;;29.47;22.53
21182;BME280;10749;46.296;7.524;2022-09-09T14:33:19;94520.03;;;29.11;22.25
21182;BME280;10749;46.296;7.524;2022-09-09T14:35:46;94518.63;;;29.55;23.31
21182;BME280;10749;46.296;7.524;2022-09-09T14:38:11;94516.38;;;29.70;22.21
21182;BME280;10749;46.296;7.524;2022-09-09T14:40:37;94538.00;;;29.67;21.81
21182;BME280;10749;46.296;7.524;2022-09-09T14:43:04;94537.47;;;29.78;23.09
21182;BME280;10749;46.296;7.524;2022-09-09T14:45:29;94533.19;;;30.00;22.84
21182;BME280;10749;46.296;7.524;2022-09-09T14:47:55;94522.97;;;30.05;20.77
21182;BME280;10749;46.296;7.524;2022-09-09T14:50:21;94539.25;;;30.10;22.67
21182;BME280;10749;46.296;7.524;2022-09-09T14:52:48;94536.63;;;30.27;22.43
21182;BME280;10749;46.296;7.524;2022-09-09T14:55:13;94539.13;;;30.38;22.84
21182;BME280;10749;46.296;7.524;2022-09-09T14:57:40;94557.19;;;30.11;21.07